sensor_id;sensor_type;location;lat;lon;timestamp;pressure;altitude;pressure_sealevel;temperature;humidity
13593;BME280;6867;50.998;4.250;2023-02-03T00:01:31;102460.22;;;11.58;74.91
13593;BME280;6867;50.998;4.250;2023-02-03T00:03:58;102442.34;;;11.73;74.66
13593;BME280;6867;50.998;4.250;2023-02-03T00:06:25;102431.41;;;11.75;74.39
13593;BME280;6867;50.998;4.250;2023-02-03T00:08:53;102436.97;;;11.73;74.51
13593;BME280;6867;50.998;4.250;2023-02-03T00:11:21;102440.34;;;11.67;74.34
13593;BME280;6867;50.998;4.250;2023-02-03T00:13:48;102424.47;;;11.80;74.15
13593;BME280;6867;50.998;4.250;2023-02-03T00:16:16;102404.94;;;11.86;73.80
13593;BME280;6867;50.998;4.250;2023-02-03T00:18:43;102413.72;;;11.80;74.04
13593;BME280;6867;50.998;4.250;2023-02-03T00:21:10;102412.19;;;11.86;73.93
13593;BME280;6867;50.998;4.250;2023-02-03T00:23:39;102415.38;;;11.81;73.86
13593;BME280;6867;50.998;4.250;2023-02-03T00:26:06;102418.41;;;11.78;73.77
13593;BME280;6867;50.998;4.250;2023-02-03T00:28:34;102436.00;;;11.58;74.35
13593;BME280;6867;50.998;4.250;2023-02-03T00:31:00;102437.44;;;11.77;74.04
13593;BME280;6867;50.998;4.250;2023-02-03T00:33:29;102446.34;;;11.38;74.88
13593;BME280;6867;50.998;4.250;2023-02-03T00:35:55;102443.34;;;11.80;74.35
13593;BME280;6867;50.998;4.250;2023-02-03T00:38:26;102442.84;;;11.85;74.21
13593;BME280;6867;50.998;4.250;2023-02-03T00:40:53;102434.94;;;11.75;73.90
13593;BME280;6867;50.998;4.250;2023-02-03T00:43:20;102471.63;;;11.68;74.93
13593;BME280;6867;50.998;4.250;2023-02-03T00:45:47;102476.22;;;11.51;74.64
13593;BME280;6867;50.998;4.250;2023-02-03T00:48:14;102482.75;;;11.65;74.93
13593;BME280;6867;50.998;4.250;2023-02-03T00:50:45;102467.59;;;11.72;74.26
13593;BME280;6867;50.998;4.250;2023-02-03T00:53:11;102480.94;;;11.49;75.31
13593;BME280;6867;50.998;4.250;2023-02-03T00:55:38;102491.84;;;11.64;75.19
13593;BME280;6867;50.998;4.250;2023-02-03T00:58:05;102488.59;;;11.77;74.72
13593;BME280;6867;50.998;4.250;2023-02-03T01:00:32;102493.81;;;11.70;74.64
13593;BME280;6867;50.998;4.250;2023-02-03T01:02:59;102479.56;;;11.53;74.48
13593;BME280;6867;50.998;4.250;2023-02-03T01:05:25;102504.81;;;11.60;74.77
13593;BME280;6867;50.998;4.250;2023-02-03T01:07:53;102512.34;;;11.65;74.85
13593;BME280;6867;50.998;4.250;2023-02-03T01:10:20;102515.22;;;11.63;74.48
13593;BME280;6867;50.998;4.250;2023-02-03T01:12:47;102512.00;;;11.76;74.49
13593;BME280;6867;50.998;4.250;2023-02-03T01:15:14;102500.41;;;11.84;74.38
13593;BME280;6867;50.998;4.250;2023-02-03T01:17:40;102505.78;;;11.84;73.95
13593;BME280;6867;50.998;4.250;2023-02-03T01:20:08;102483.72;;;11.88;73.76
13593;BME280;6867;50.998;4.250;2023-02-03T01:22:36;102482.38;;;11.84;73.51
13593;BME280;6867;50.998;4.250;2023-02-03T01:25:05;102517.25;;;11.53;74.90
13593;BME280;6867;50.998;4.250;2023-02-03T01:27:32;102504.22;;;11.81;74.29
13593;BME280;6867;50.998;4.250;2023-02-03T01:29:59;102507.13;;;11.71;74.19
13593;BME280;6867;50.998;4.250;2023-02-03T01:32:26;102512.34;;;11.73;74.16
13593;BME280;6867;50.998;4.250;2023-02-03T01:34:53;102508.94;;;11.95;73.66
13593;BME280;6867;50.998;4.250;2023-02-03T01:37:19;102519.06;;;11.77;73.70
13593;BME280;6867;50.998;4.250;2023-02-03T01:39:46;102506.94;;;11.73;73.81
13593;BME280;6867;50.998;4.250;2023-02-03T01:42:15;102506.44;;;11.86;73.18
13593;BME280;6867;50.998;4.250;2023-02-03T01:44:43;102502.34;;;11.98;72.96
13593;BME280;6867;50.998;4.250;2023-02-03T01:47:22;102477.31;;;11.89;72.52
13593;BME280;6867;50.998;4.250;2023-02-03T01:49:56;102490.81;;;11.65;72.99
13593;BME280;6867;50.998;4.250;2023-02-03T01:52:25;102490.47;;;11.84;73.17
13593;BME280;6867;50.998;4.250;2023-02-03T01:54:55;102487.44;;;11.79;72.79
13593;BME280;6867;50.998;4.250;2023-02-03T01:57:29;102485.97;;;11.60;73.21
13593;BME280;6867;50.998;4.250;2023-02-03T01:59:58;102469.22;;;11.81;72.58
13593;BME280;6867;50.998;4.250;2023-02-03T02:02:26;102469.53;;;11.94;72.18
13593;BME280;6867;50.998;4.250;2023-02-03T02:04:55;102468.22;;;11.90;72.05
13593;BME280;6867;50.998;4.250;2023-02-03T02:07:25;102458.47;;;11.89;71.90
13593;BME280;6867;50.998;4.250;2023-02-03T02:09:53;102467.84;;;11.46;72.51
13593;BME280;6867;50.998;4.250;2023-02-03T02:12:21;102500.16;;;11.30;73.84
13593;BME280;6867;50.998;4.250;2023-02-03T02:14:49;102499.72;;;11.65;72.82
13593;BME280;6867;50.998;4.250;2023-02-03T02:17:40;102481.69;;;11.74;72.83
13593;BME280;6867;50.998;4.250;2023-02-03T02:20:37;102462.38;;;11.70;72.45
13593;BME280;6867;50.998;4.250;2023-02-03T02:23:27;102450.84;;;11.54;72.42
13593;BME280;6867;50.998;4.250;2023-02-03T02:26:32;102441.56;;;11.56;72.25
13593;BME280;6867;50.998;4.250;2023-02-03T02:29:25;102433.63;;;11.71;71.90
13593;BME280;6867;50.998;4.250;2023-02-03T02:32:00;102438.03;;;11.56;71.72
13593;BME280;6867;50.998;4.250;2023-02-03T02:34:38;102433.31;;;11.58;72.31
13593;BME280;6867;50.998;4.250;2023-02-03T02:37:15;102437.56;;;11.44;72.54
13593;BME280;6867;50.998;4.250;2023-02-03T02:39:48;102420.34;;;11.61;71.57
13593;BME280;6867;50.998;4.250;2023-02-03T02:42:23;102407.56;;;11.63;71.73
13593;BME280;6867;50.998;4.250;2023-02-03T02:44:56;102399.75;;;11.37;71.90
13593;BME280;6867;50.998;4.250;2023-02-03T02:47:26;102406.44;;;11.50;72.04
13593;BME280;6867;50.998;4.250;2023-02-03T02:49:59;102406.44;;;11.50;71.71
13593;BME280;6867;50.998;4.250;2023-02-03T02:52:29;102417.47;;;11.71;71.94
13593;BME280;6867;50.998;4.250;2023-02-03T02:55:00;102395.22;;;11.77;70.77
13593;BME280;6867;50.998;4.250;2023-02-03T02:57:29;102416.41;;;11.80;71.01
13593;BME280;6867;50.998;4.250;2023-02-03T02:59:57;102409.16;;;11.81;70.60
13593;BME280;6867;50.998;4.250;2023-02-03T03:02:32;102412.94;;;11.63;71.01
13593;BME280;6867;50.998;4.250;2023-02-03T03:04:59;102428.34;;;11.78;70.96
13593;BME280;6867;50.998;4.250;2023-02-03T03:07:28;102438.00;;;11.64;71.10
13593;BME280;6867;50.998;4.250;2023-02-03T03:09:59;102430.13;;;11.62;71.39
13593;BME280;6867;50.998;4.250;2023-02-03T03:12:28;102406.34;;;11.66;70.99
13593;BME280;6867;50.998;4.250;2023-02-03T03:14:58;102410.59;;;11.60;70.97
13593;BME280;6867;50.998;4.250;2023-02-03T03:17:32;102436.63;;;11.29;72.20
13593;BME280;6867;50.998;4.250;2023-02-03T03:20:03;102437.81;;;11.65;71.63
13593;BME280;6867;50.998;4.250;2023-02-03T03:22:35;102430.13;;;11.62;71.50
13593;BME280;6867;50.998;4.250;2023-02-03T03:25:10;102413.88;;;11.79;71.04
13593;BME280;6867;50.998;4.250;2023-02-03T03:27:41;102444.06;;;11.58;71.61
13593;BME280;6867;50.998;4.250;2023-02-03T03:30:13;102437.63;;;11.75;71.27
13593;BME280;6867;50.998;4.250;2023-02-03T03:32:43;102440.88;;;11.62;71.13
13593;BME280;6867;50.998;4.250;2023-02-03T03:35:10;102430.75;;;11.72;71.06
13593;BME280;6867;50.998;4.250;2023-02-03T03:37:41;102440.66;;;11.72;71.43
13593;BME280;6867;50.998;4.250;2023-02-03T03:40:11;102423.53;;;11.65;71.19
13593;BME280;6867;50.998;4.250;2023-02-03T03:42:43;102423.50;;;11.73;70.79
13593;BME280;6867;50.998;4.250;2023-02-03T03:45:16;102433.91;;;11.76;71.15
13593;BME280;6867;50.998;4.250;2023-02-03T03:47:50;102428.41;;;11.61;71.12
13593;BME280;6867;50.998;4.250;2023-02-03T03:50:23;102428.22;;;11.71;70.92
13593;BME280;6867;50.998;4.250;2023-02-03T03:52:52;102430.78;;;11.64;70.85
13593;BME280;6867;50.998;4.250;2023-02-03T03:55:21;102444.63;;;11.45;71.24
13593;BME280;6867;50.998;4.250;2023-02-03T03:57:53;102438.44;;;11.92;70.13
13593;BME280;6867;50.998;4.250;2023-02-03T04:00:24;102428.56;;;11.68;70.96
13593;BME280;6867;50.998;4.250;2023-02-03T04:02:56;102432.03;;;11.45;71.20
13593;BME280;6867;50.998;4.250;2023-02-03T04:05:24;102412.75;;;11.65;70.55
13593;BME280;6867;50.998;4.250;2023-02-03T04:07:52;102413.84;;;11.47;71.07
13593;BME280;6867;50.998;4.250;2023-02-03T04:10:24;102404.31;;;11.76;70.71
13593;BME280;6867;50.998;4.250;2023-02-03T04:12:54;102390.41;;;11.64;70.39
13593;BME280;6867;50.998;4.250;2023-02-03T04:15:21;102405.50;;;11.26;71.54
13593;BME280;6867;50.998;4.250;2023-02-03T04:17:47;102412.81;;;11.48;71.11
13593;BME280;6867;50.998;4.250;2023-02-03T04:20:16;102417.50;;;11.63;71.01
13593;BME280;6867;50.998;4.250;2023-02-03T04:22:43;102402.16;;;11.71;70.58
13593;BME280;6867;50.998;4.250;2023-02-03T04:25:09;102396.09;;;11.69;70.24
13593;BME280;6867;50.998;4.250;2023-02-03T04:27:36;102402.00;;;11.65;70.34
13593;BME280;6867;50.998;4.250;2023-02-03T04:30:04;102412.13;;;11.63;70.33
13593;BME280;6867;50.998;4.250;2023-02-03T04:32:31;102412.44;;;11.60;70.47
13593;BME280;6867;50.998;4.250;2023-02-03T04:35:00;102412.75;;;11.65;70.47
13593;BME280;6867;50.998;4.250;2023-02-03T04:37:28;102399.25;;;11.73;69.88
13593;BME280;6867;50.998;4.250;2023-02-03T04:39:55;102392.75;;;11.67;69.39
13593;BME280;6867;50.998;4.250;2023-02-03T04:42:22;102414.31;;;11.59;69.88
13593;BME280;6867;50.998;4.250;2023-02-03T04:44:49;102427.06;;;11.65;70.17
13593;BME280;6867;50.998;4.250;2023-02-03T04:47:16;102429.66;;;11.51;69.91
13593;BME280;6867;50.998;4.250;2023-02-03T04:49:43;102431.78;;;11.63;70.03
13593;BME280;6867;50.998;4.250;2023-02-03T04:52:13;102412.13;;;11.63;69.28
13593;BME280;6867;50.998;4.250;2023-02-03T04:54:41;102411.09;;;11.64;69.63
13593;BME280;6867;50.998;4.250;2023-02-03T04:57:08;102423.38;;;11.66;69.80
13593;BME280;6867;50.998;4.250;2023-02-03T04:59:34;102433.69;;;11.55;69.93
13593;BME280;6867;50.998;4.250;2023-02-03T05:02:02;102415.47;;;11.57;69.77
13593;BME280;6867;50.998;4.250;2023-02-03T05:04:29;102424.53;;;11.25;70.43
13593;BME280;6867;50.998;4.250;2023-02-03T05:06:56;102412.78;;;11.57;70.21
13593;BME280;6867;50.998;4.250;2023-02-03T05:09:22;102414.22;;;11.28;70.27
13593;BME280;6867;50.998;4.250;2023-02-03T05:11:50;102433.41;;;11.33;70.54
13593;BME280;6867;50.998;4.250;2023-02-03T05:14:17;102436.53;;;11.45;70.85
13593;BME280;6867;50.998;4.250;2023-02-03T05:16:45;102425.63;;;11.46;70.33
13593;BME280;6867;50.998;4.250;2023-02-03T05:19:12;102415.47;;;11.57;70.16
13593;BME280;6867;50.998;4.250;2023-02-03T05:21:39;102415.41;;;11.34;70.70
13593;BME280;6867;50.998;4.250;2023-02-03T05:24:06;102433.56;;;11.32;70.75
13593;BME280;6867;50.998;4.250;2023-02-03T05:26:33;102420.91;;;11.40;70.78
13593;BME280;6867;50.998;4.250;2023-02-03T05:29:02;102431.66;;;11.48;70.76
13593;BME280;6867;50.998;4.250;2023-02-03T05:31:28;102420.56;;;11.52;70.23
13593;BME280;6867;50.998;4.250;2023-02-03T05:33:55;102424.25;;;11.59;70.10
13593;BME280;6867;50.998;4.250;2023-02-03T05:36:22;102451.75;;;11.30;71.06
13593;BME280;6867;50.998;4.250;2023-02-03T05:38:48;102464.69;;;11.26;71.24
13593;BME280;6867;50.998;4.250;2023-02-03T05:41:15;102444.47;;;11.38;70.66
13593;BME280;6867;50.998;4.250;2023-02-03T05:43:59;102443.22;;;11.57;70.35
13593;BME280;6867;50.998;4.250;2023-02-03T05:46:27;102432.47;;;11.57;70.21
13593;BME280;6867;50.998;4.250;2023-02-03T05:48:54;102448.56;;;11.18;70.66
13593;BME280;6867;50.998;4.250;2023-02-03T05:51:21;102463.84;;;11.34;71.09
13593;BME280;6867;50.998;4.250;2023-02-03T05:53:49;102456.91;;;11.47;70.53
13593;BME280;6867;50.998;4.250;2023-02-03T05:56:16;102446.94;;;11.56;70.45
13593;BME280;6867;50.998;4.250;2023-02-03T05:58:42;102452.63;;;11.61;70.11
13593;BME280;6867;50.998;4.250;2023-02-03T06:01:09;102467.34;;;11.42;70.49
13593;BME280;6867;50.998;4.250;2023-02-03T06:03:37;102452.69;;;11.45;70.30
13593;BME280;6867;50.998;4.250;2023-02-03T06:06:04;102434.50;;;11.55;69.83
13593;BME280;6867;50.998;4.250;2023-02-03T06:08:31;102434.56;;;11.39;69.90
13593;BME280;6867;50.998;4.250;2023-02-03T06:10:58;102439.97;;;11.22;70.34
13593;BME280;6867;50.998;4.250;2023-02-03T06:13:25;102454.25;;;11.31;70.76
13593;BME280;6867;50.998;4.250;2023-02-03T06:15:52;102437.09;;;11.32;70.15
13593;BME280;6867;50.998;4.250;2023-02-03T06:18:19;102432.03;;;11.45;69.88
13593;BME280;6867;50.998;4.250;2023-02-03T06:20:47;102431.00;;;11.46;69.93
13593;BME280;6867;50.998;4.250;2023-02-03T06:23:14;102426.03;;;11.19;69.95
13593;BME280;6867;50.998;4.250;2023-02-03T06:25:43;102450.00;;;11.45;70.26
13593;BME280;6867;50.998;4.250;2023-02-03T06:28:10;102442.84;;;11.29;70.32
13593;BME280;6867;50.998;4.250;2023-02-03T06:30:36;102439.78;;;11.32;70.19
13593;BME280;6867;50.998;4.250;2023-02-03T06:33:03;102436.69;;;11.52;69.34
13593;BME280;6867;50.998;4.250;2023-02-03T06:35:30;102429.16;;;11.47;69.26
13593;BME280;6867;50.998;4.250;2023-02-03T06:37:58;102442.00;;;11.29;70.33
13593;BME280;6867;50.998;4.250;2023-02-03T06:40:25;102434.94;;;11.19;70.01
13593;BME280;6867;50.998;4.250;2023-02-03T06:42:52;102446.41;;;10.97;70.62
13593;BME280;6867;50.998;4.250;2023-02-03T06:45:19;102464.53;;;11.03;71.05
13593;BME280;6867;50.998;4.250;2023-02-03T06:47:45;102470.09;;;11.10;70.99
13593;BME280;6867;50.998;4.250;2023-02-03T06:50:13;102471.75;;;10.94;71.09
13593;BME280;6867;50.998;4.250;2023-02-03T06:52:40;102480.50;;;11.29;70.87
13593;BME280;6867;50.998;4.250;2023-02-03T06:55:09;102480.63;;;11.36;70.27
13593;BME280;6867;50.998;4.250;2023-02-03T06:57:42;102467.13;;;11.52;70.17
13593;BME280;6867;50.998;4.250;2023-02-03T07:00:10;102429.56;;;11.03;70.57
13593;BME280;6867;50.998;4.250;2023-02-03T07:02:37;102466.84;;;11.39;71.23
13593;BME280;6867;50.998;4.250;2023-02-03T07:05:05;102466.56;;;11.09;70.99
13593;BME280;6867;50.998;4.250;2023-02-03T07:07:32;102459.13;;;11.19;70.69
13593;BME280;6867;50.998;4.250;2023-02-03T07:10:00;102467.69;;;11.39;70.62
13593;BME280;6867;50.998;4.250;2023-02-03T07:12:29;102458.91;;;11.54;70.31
13593;BME280;6867;50.998;4.250;2023-02-03T07:14:56;102461.50;;;11.78;69.75
13593;BME280;6867;50.998;4.250;2023-02-03T07:17:23;102440.53;;;11.57;69.42
13593;BME280;6867;50.998;4.250;2023-02-03T07:19:50;102455.25;;;11.38;70.24
13593;BME280;6867;50.998;4.250;2023-02-03T07:22:17;102454.19;;;11.56;70.36
13593;BME280;6867;50.998;4.250;2023-02-03T07:24:43;102430.16;;;11.46;69.81
13593;BME280;6867;50.998;4.250;2023-02-03T07:27:10;102430.00;;;11.39;70.19
13593;BME280;6867;50.998;4.250;2023-02-03T07:29:38;102446.50;;;11.28;70.71
13593;BME280;6867;50.998;4.250;2023-02-03T07:32:05;102457.28;;;11.20;71.07
13593;BME280;6867;50.998;4.250;2023-02-03T07:34:32;102479.78;;;11.35;71.21
13593;BME280;6867;50.998;4.250;2023-02-03T07:36:59;102490.53;;;11.52;70.90
13593;BME280;6867;50.998;4.250;2023-02-03T07:39:25;102482.16;;;11.38;70.62
13593;BME280;6867;50.998;4.250;2023-02-03T07:41:52;102491.22;;;11.54;70.35
13593;BME280;6867;50.998;4.250;2023-02-03T07:44:19;102492.00;;;11.70;70.69
13593;BME280;6867;50.998;4.250;2023-02-03T07:46:47;102478.84;;;11.76;70.09
13593;BME280;6867;50.998;4.250;2023-02-03T07:49:14;102490.22;;;11.38;70.40
13593;BME280;6867;50.998;4.250;2023-02-03T07:51:40;102475.47;;;11.73;70.06
13593;BME280;6867;50.998;4.250;2023-02-03T07:54:07;102483.09;;;11.62;70.13
13593;BME280;6867;50.998;4.250;2023-02-03T07:56:34;102471.63;;;11.84;69.50
13593;BME280;6867;50.998;4.250;2023-02-03T07:59:01;102492.69;;;11.56;70.63
13593;BME280;6867;50.998;4.250;2023-02-03T08:01:27;102505.13;;;11.65;70.54
13593;BME280;6867;50.998;4.250;2023-02-03T08:03:57;102494.19;;;11.83;70.13
13593;BME280;6867;50.998;4.250;2023-02-03T08:06:26;102502.34;;;11.98;70.17
13593;BME280;6867;50.998;4.250;2023-02-03T08:08:54;102499.56;;;11.75;70.19
13593;BME280;6867;50.998;4.250;2023-02-03T08:11:21;102517.38;;;11.76;70.47
13593;BME280;6867;50.998;4.250;2023-02-03T08:13:48;102531.53;;;11.62;70.75
13593;BME280;6867;50.998;4.250;2023-02-03T08:16:15;102524.00;;;11.49;70.53
13593;BME280;6867;50.998;4.250;2023-02-03T08:18:42;102542.63;;;11.75;70.52
13593;BME280;6867;50.998;4.250;2023-02-03T08:21:10;102519.38;;;11.82;69.83
13593;BME280;6867;50.998;4.250;2023-02-03T08:23:37;102539.09;;;11.75;70.24
13593;BME280;6867;50.998;4.250;2023-02-03T08:26:04;102525.13;;;11.87;69.73
13593;BME280;6867;50.998;4.250;2023-02-03T08:28:31;102517.88;;;11.80;69.93
13593;BME280;6867;50.998;4.250;2023-02-03T08:30:58;102505.81;;;12.15;69.10
13593;BME280;6867;50.998;4.250;2023-02-03T08:33:24;102501.47;;;12.06;69.04
13593;BME280;6867;50.998;4.250;2023-02-03T08:35:53;102479.00;;;12.21;68.53
13593;BME280;6867;50.998;4.250;2023-02-03T08:38:22;102493.47;;;12.20;68.59
13593;BME280;6867;50.998;4.250;2023-02-03T08:40:49;102509.16;;;12.25;68.21
13593;BME280;6867;50.998;4.250;2023-02-03T08:43:15;102504.59;;;12.26;68.24
13593;BME280;6867;50.998;4.250;2023-02-03T08:45:42;102502.63;;;12.11;68.37
13593;BME280;6867;50.998;4.250;2023-02-03T08:48:09;102512.97;;;12.31;68.44
13593;BME280;6867;50.998;4.250;2023-02-03T08:50:36;102513.66;;;12.56;67.73
13593;BME280;6867;50.998;4.250;2023-02-03T08:53:02;102523.50;;;12.17;68.41
13593;BME280;6867;50.998;4.250;2023-02-03T08:55:31;102519.81;;;12.41;68.43
13593;BME280;6867;50.998;4.250;2023-02-03T08:57:57;102502.84;;;12.33;67.52
13593;BME280;6867;50.998;4.250;2023-02-03T09:00:25;102505.97;;;12.21;67.68
13593;BME280;6867;50.998;4.250;2023-02-03T09:02:52;102535.44;;;12.15;68.65
13593;BME280;6867;50.998;4.250;2023-02-03T09:05:18;102530.19;;;12.53;67.87
13593;BME280;6867;50.998;4.250;2023-02-03T09:07:45;102536.50;;;12.37;68.52
13593;BME280;6867;50.998;4.250;2023-02-03T09:10:12;102524.09;;;12.59;67.37
13593;BME280;6867;50.998;4.250;2023-02-03T09:12:40;102556.06;;;12.39;67.85
13593;BME280;6867;50.998;4.250;2023-02-03T09:15:08;102562.81;;;12.35;67.78
13593;BME280;6867;50.998;4.250;2023-02-03T09:17:35;102553.75;;;12.59;67.56
13593;BME280;6867;50.998;4.250;2023-02-03T09:20:01;102549.25;;;12.51;67.60
13593;BME280;6867;50.998;4.250;2023-02-03T09:22:28;102555.81;;;12.49;67.80
13593;BME280;6867;50.998;4.250;2023-02-03T09:24:55;102561.75;;;12.75;67.11
13593;BME280;6867;50.998;4.250;2023-02-03T09:27:22;102557.88;;;13.01;66.53
13593;BME280;6867;50.998;4.250;2023-02-03T09:29:50;102574.41;;;12.66;67.51
13593;BME280;6867;50.998;4.250;2023-02-03T09:32:17;102551.00;;;12.36;67.48
13593;BME280;6867;50.998;4.250;2023-02-03T09:34:43;102569.22;;;12.65;67.43
13593;BME280;6867;50.998;4.250;2023-02-03T09:37:10;102552.19;;;12.87;66.44
13593;BME280;6867;50.998;4.250;2023-02-03T09:39:37;102560.44;;;12.94;66.51
13593;BME280;6867;50.998;4.250;2023-02-03T09:42:35;102574.59;;;12.96;66.92
13593;BME280;6867;50.998;4.250;2023-02-03T09:45:17;102580.38;;;12.54;67.24
13593;BME280;6867;50.998;4.250;2023-02-03T09:47:47;102560.53;;;12.78;67.14
13593;BME280;6867;50.998;4.250;2023-02-03T09:50:21;102552.75;;;13.06;66.37
13593;BME280;6867;50.998;4.250;2023-02-03T09:52:49;102553.31;;;13.01;66.20
13593;BME280;6867;50.998;4.250;2023-02-03T09:55:24;102569.53;;;12.93;66.86
13593;BME280;6867;50.998;4.250;2023-02-03T09:57:55;102555.84;;;13.40;65.90
13593;BME280;6867;50.998;4.250;2023-02-03T10:00:29;102531.03;;;13.22;65.49
13593;BME280;6867;50.998;4.250;2023-02-03T10:03:01;102536.16;;;13.55;65.53
13593;BME280;6867;50.998;4.250;2023-02-03T10:05:41;102559.31;;;13.34;65.54
13593;BME280;6867;50.998;4.250;2023-02-03T10:08:17;102534.63;;;13.37;65.32
13593;BME280;6867;50.998;4.250;2023-02-03T10:10:53;102539.81;;;13.77;64.93
13593;BME280;6867;50.998;4.250;2023-02-03T10:13:39;102505.97;;;14.10;63.85
13593;BME280;6867;50.998;4.250;2023-02-03T10:16:19;102503.84;;;13.61;64.05
13593;BME280;6867;50.998;4.250;2023-02-03T10:18:52;102497.41;;;13.62;63.36
13593;BME280;6867;50.998;4.250;2023-02-03T10:21:33;102546.34;;;13.97;64.16
13593;BME280;6867;50.998;4.250;2023-02-03T10:24:03;102542.50;;;13.77;64.20
13593;BME280;6867;50.998;4.250;2023-02-03T10:26:32;102536.31;;;13.53;63.86
13593;BME280;6867;50.998;4.250;2023-02-03T10:29:04;102561.31;;;13.32;65.30
13593;BME280;6867;50.998;4.250;2023-02-03T10:31:35;102591.47;;;13.59;65.28
13593;BME280;6867;50.998;4.250;2023-02-03T10:34:08;102571.09;;;13.33;65.29
13593;BME280;6867;50.998;4.250;2023-02-03T10:36:47;102578.06;;;13.51;65.46
13593;BME280;6867;50.998;4.250;2023-02-03T10:39:22;102588.69;;;13.67;65.23
13593;BME280;6867;50.998;4.250;2023-02-03T10:41:52;102612.44;;;13.34;65.82
13593;BME280;6867;50.998;4.250;2023-02-03T10:44:24;102621.34;;;12.88;66.61
13593;BME280;6867;50.998;4.250;2023-02-03T10:46:56;102619.66;;;13.56;66.46
13593;BME280;6867;50.998;4.250;2023-02-03T10:49:26;102585.28;;;13.88;65.02
13593;BME280;6867;50.998;4.250;2023-02-03T10:51:57;102571.47;;;13.30;65.49
13593;BME280;6867;50.998;4.250;2023-02-03T10:54:30;102590.38;;;13.68;65.13
13593;BME280;6867;50.998;4.250;2023-02-03T10:57:02;102581.34;;;13.76;64.69
13593;BME280;6867;50.998;4.250;2023-02-03T10:59:32;102610.31;;;13.44;65.74
13593;BME280;6867;50.998;4.250;2023-02-03T11:02:06;102625.34;;;13.61;65.97
13593;BME280;6867;50.998;4.250;2023-02-03T11:04:34;102608.66;;;13.43;66.14
13593;BME280;6867;50.998;4.250;2023-02-03T11:07:03;102631.63;;;13.08;66.78
13593;BME280;6867;50.998;4.250;2023-02-03T11:09:32;102642.44;;;13.39;66.45
13593;BME280;6867;50.998;4.250;2023-02-03T11:12:06;102668.75;;;12.75;67.95
13593;BME280;6867;50.998;4.250;2023-02-03T11:14:36;102656.25;;;13.13;67.34
13593;BME280;6867;50.998;4.250;2023-02-03T11:17:13;102638.41;;;13.35;67.38
13593;BME280;6867;50.998;4.250;2023-02-03T11:19:43;102617.69;;;13.50;66.37
13593;BME280;6867;50.998;4.250;2023-02-03T11:22:11;102646.06;;;13.00;67.28
13593;BME280;6867;50.998;4.250;2023-02-03T11:24:40;102657.84;;;13.30;67.51
13593;BME280;6867;50.998;4.250;2023-02-03T11:27:12;102644.34;;;13.30;67.16
13593;BME280;6867;50.998;4.250;2023-02-03T11:29:42;102657.56;;;13.25;67.76
13593;BME280;6867;50.998;4.250;2023-02-03T11:32:17;102648.91;;;13.30;67.38
13593;BME280;6867;50.998;4.250;2023-02-03T11:34:48;102632.38;;;13.02;67.69
13593;BME280;6867;50.998;4.250;2023-02-03T11:37:28;102601.25;;;13.75;66.55
13593;BME280;6867;50.998;4.250;2023-02-03T11:40:12;102593.06;;;13.68;66.31
13593;BME280;6867;50.998;4.250;2023-02-03T11:42:59;102600.16;;;13.31;66.36
13593;BME280;6867;50.998;4.250;2023-02-03T11:45:27;102595.88;;;13.37;66.75
13593;BME280;6867;50.998;4.250;2023-02-03T11:47:58;102597.44;;;13.69;66.20
13593;BME280;6867;50.998;4.250;2023-02-03T11:50:29;102580.88;;;13.72;65.82
13593;BME280;6867;50.998;4.250;2023-02-03T11:53:16;102590.56;;;13.81;65.89
13593;BME280;6867;50.998;4.250;2023-02-03T11:55:52;102622.19;;;13.58;66.79
13593;BME280;6867;50.998;4.250;2023-02-03T11:58:43;102610.03;;;13.91;66.37
13593;BME280;6867;50.998;4.250;2023-02-03T12:01:22;102616.00;;;13.49;66.82
13593;BME280;6867;50.998;4.250;2023-02-03T12:04:20;102640.28;;;13.34;67.32
13593;BME280;6867;50.998;4.250;2023-02-03T12:07:09;102658.19;;;13.50;67.63
13593;BME280;6867;50.998;4.250;2023-02-03T12:09:49;102666.47;;;13.49;67.88
13593;BME280;6867;50.998;4.250;2023-02-03T12:12:29;102647.78;;;13.16;67.36
13593;BME280;6867;50.998;4.250;2023-02-03T12:15:06;102669.13;;;13.34;68.40
13593;BME280;6867;50.998;4.250;2023-02-03T12:17:51;102670.50;;;13.30;68.08
13593;BME280;6867;50.998;4.250;2023-02-03T12:20:40;102671.16;;;13.55;67.96
13593;BME280;6867;50.998;4.250;2023-02-03T12:23:21;102655.31;;;13.52;67.32
13593;BME280;6867;50.998;4.250;2023-02-03T12:26:02;102649.78;;;13.45;67.25
13593;BME280;6867;50.998;4.250;2023-02-03T12:28:40;102646.06;;;13.69;66.65
13593;BME280;6867;50.998;4.250;2023-02-03T12:31:14;102651.09;;;13.49;67.25
13593;BME280;6867;50.998;4.250;2023-02-03T12:33:45;102639.09;;;13.89;66.42
13593;BME280;6867;50.998;4.250;2023-02-03T12:36:20;102635.78;;;14.02;66.36
13593;BME280;6867;50.998;4.250;2023-02-03T12:38:51;102636.19;;;13.76;66.32
13593;BME280;6867;50.998;4.250;2023-02-03T12:41:22;102661.84;;;13.57;67.53
13593;BME280;6867;50.998;4.250;2023-02-03T12:43:52;102661.78;;;13.65;67.26
13593;BME280;6867;50.998;4.250;2023-02-03T12:46:22;102659.91;;;13.66;67.48
13593;BME280;6867;50.998;4.250;2023-02-03T12:48:56;102646.41;;;13.66;67.04
13593;BME280;6867;50.998;4.250;2023-02-03T12:51:32;102620.47;;;13.80;66.04
13593;BME280;6867;50.998;4.250;2023-02-03T12:54:06;102607.06;;;13.72;66.30
13593;BME280;6867;50.998;4.250;2023-02-03T12:56:39;102606.50;;;14.06;66.05
13593;BME280;6867;50.998;4.250;2023-02-03T12:59:11;102597.66;;;14.27;65.14
13593;BME280;6867;50.998;4.250;2023-02-03T13:01:44;102595.88;;;14.04;64.83
13593;BME280;6867;50.998;4.250;2023-02-03T13:04:18;102599.19;;;13.62;65.73
13593;BME280;6867;50.998;4.250;2023-02-03T13:06:53;102607.16;;;14.23;65.45
13593;BME280;6867;50.998;4.250;2023-02-03T13:09:27;102611.53;;;14.24;65.80
13593;BME280;6867;50.998;4.250;2023-02-03T13:12:00;102597.28;;;14.15;64.76
13593;BME280;6867;50.998;4.250;2023-02-03T13:14:33;102588.50;;;14.42;64.65
13593;BME280;6867;50.998;4.250;2023-02-03T13:17:06;102562.97;;;14.30;63.95